sensor_id;sensor_type;location;lat;lon;timestamp;P1;durP1;ratioP1;P2;durP2;ratioP2
69621;SDS011;56841;55.964;37.674;2022-08-21T00:01:26;32.00;;;15.50;;
69621;SDS011;56841;55.964;37.674;2022-08-21T00:03:54;39.08;;;15.77;;
69621;SDS011;56841;55.964;37.674;2022-08-21T00:06:21;29.67;;;15.57;;
69621;SDS011;56841;55.964;37.674;2022-08-21T00:08:49;30.73;;;16.38;;
69621;SDS011;56841;55.964;37.674;2022-08-21T00:11:16;30.13;;;15.57;;
69621;SDS011;56841;55.964;37.674;2022-08-21T00:13:42;32.45;;;16.00;;
69621;SDS011;56841;55.964;37.674;2022-08-21T00:16:08;30.13;;;15.45;;
69621;SDS011;56841;55.964;37.674;2022-08-21T00:18:34;33.03;;;15.15;;
69621;SDS011;56841;55.964;37.674;2022-08-21T00:21:01;31.50;;;14.43;;
69621;SDS011;56841;55.964;37.674;2022-08-21T00:23:26;29.50;;;14.85;;
69621;SDS011;56841;55.964;37.674;2022-08-21T00:25:52;28.30;;;14.45;;
69621;SDS011;56841;55.964;37.674;2022-08-21T00:28:18;29.55;;;15.65;;
69621;SDS011;56841;55.964;37.674;2022-08-21T00:30:44;28.90;;;15.15;;
69621;SDS011;56841;55.964;37.674;2022-08-21T00:33:11;27.13;;;14.93;;
69621;SDS011;56841;55.964;37.674;2022-08-21T00:35:38;26.95;;;14.15;;
69621;SDS011;56841;55.964;37.674;2022-08-21T00:38:06;28.75;;;15.10;;
69621;SDS011;56841;55.964;37.674;2022-08-21T00:40:38;26.40;;;13.82;;
69621;SDS011;56841;55.964;37.674;2022-08-21T00:43:10;28.20;;;13.85;;
69621;SDS011;56841;55.964;37.674;2022-08-21T00:45:38;28.00;;;14.23;;
69621;SDS011;56841;55.964;37.674;2022-08-21T00:48:04;28.15;;;13.13;;
69621;SDS011;56841;55.964;37.674;2022-08-21T00:50:31;25.63;;;12.95;;
69621;SDS011;56841;55.964;37.674;2022-08-21T00:53:00;28.17;;;13.23;;
69621;SDS011;56841;55.964;37.674;2022-08-21T00:55:31;27.92;;;13.57;;
69621;SDS011;56841;55.964;37.674;2022-08-21T00:57:59;29.58;;;13.63;;
69621;SDS011;56841;55.964;37.674;2022-08-21T01:00:31;25.60;;;12.98;;
69621;SDS011;56841;55.964;37.674;2022-08-21T01:03:00;28.63;;;13.45;;
69621;SDS011;56841;55.964;37.674;2022-08-21T01:05:27;27.52;;;13.30;;
69621;SDS011;56841;55.964;37.674;2022-08-21T01:07:53;32.83;;;13.57;;
69621;SDS011;56841;55.964;37.674;2022-08-21T01:10:22;32.70;;;13.77;;
69621;SDS011;56841;55.964;37.674;2022-08-21T01:12:48;30.10;;;14.43;;
69621;SDS011;56841;55.964;37.674;2022-08-21T01:15:17;27.38;;;13.52;;
69621;SDS011;56841;55.964;37.674;2022-08-21T01:17:46;24.95;;;13.70;;
69621;SDS011;56841;55.964;37.674;2022-08-21T01:20:13;31.17;;;13.82;;
69621;SDS011;56841;55.964;37.674;2022-08-21T01:22:38;30.58;;;14.10;;
69621;SDS011;56841;55.964;37.674;2022-08-21T01:25:05;31.40;;;13.77;;
69621;SDS011;56841;55.964;37.674;2022-08-21T01:27:32;29.60;;;14.35;;
69621;SDS011;56841;55.964;37.674;2022-08-21T01:30:10;29.92;;;14.48;;
69621;SDS011;56841;55.964;37.674;2022-08-21T01:32:43;31.00;;;14.70;;
69621;SDS011;56841;55.964;37.674;2022-08-21T01:35:10;30.73;;;15.40;;
69621;SDS011;56841;55.964;37.674;2022-08-21T01:37:39;31.55;;;15.50;;
69621;SDS011;56841;55.964;37.674;2022-08-21T01:40:05;35.20;;;16.27;;
69621;SDS011;56841;55.964;37.674;2022-08-21T01:42:33;30.70;;;15.63;;
69621;SDS011;56841;55.964;37.674;2022-08-21T01:44:59;35.10;;;15.70;;
69621;SDS011;56841;55.964;37.674;2022-08-21T01:47:25;32.90;;;15.82;;
69621;SDS011;56841;55.964;37.674;2022-08-21T01:49:51;30.80;;;16.65;;
69621;SDS011;56841;55.964;37.674;2022-08-21T01:52:17;32.80;;;16.25;;
69621;SDS011;56841;55.964;37.674;2022-08-21T01:54:43;32.05;;;15.93;;
69621;SDS011;56841;55.964;37.674;2022-08-21T01:57:09;35.15;;;17.27;;
69621;SDS011;56841;55.964;37.674;2022-08-21T01:59:35;36.97;;;17.52;;
69621;SDS011;56841;55.964;37.674;2022-08-21T02:02:02;36.42;;;18.75;;
69621;SDS011;56841;55.964;37.674;2022-08-21T02:04:29;39.38;;;17.85;;
69621;SDS011;56841;55.964;37.674;2022-08-21T02:06:55;35.50;;;18.33;;
69621;SDS011;56841;55.964;37.674;2022-08-21T02:09:21;34.92;;;17.55;;
69621;SDS011;56841;55.964;37.674;2022-08-21T02:11:47;41.47;;;19.85;;
69621;SDS011;56841;55.964;37.674;2022-08-21T02:14:14;38.55;;;20.20;;
69621;SDS011;56841;55.964;37.674;2022-08-21T02:16:41;40.17;;;19.70;;
69621;SDS011;56841;55.964;37.674;2022-08-21T02:19:09;49.55;;;21.05;;
69621;SDS011;56841;55.964;37.674;2022-08-21T02:21:36;46.60;;;20.55;;
69621;SDS011;56841;55.964;37.674;2022-08-21T02:24:02;46.28;;;21.98;;
69621;SDS011;56841;55.964;37.674;2022-08-21T02:26:28;40.60;;;21.80;;
69621;SDS011;56841;55.964;37.674;2022-08-21T02:28:53;45.25;;;22.27;;
69621;SDS011;56841;55.964;37.674;2022-08-21T02:31:19;46.03;;;22.52;;
69621;SDS011;56841;55.964;37.674;2022-08-21T02:33:45;48.13;;;23.48;;
69621;SDS011;56841;55.964;37.674;2022-08-21T02:36:11;44.72;;;23.08;;
69621;SDS011;56841;55.964;37.674;2022-08-21T02:38:38;48.47;;;24.08;;
69621;SDS011;56841;55.964;37.674;2022-08-21T02:41:06;48.97;;;24.75;;
69621;SDS011;56841;55.964;37.674;2022-08-21T02:43:33;49.10;;;25.33;;
69621;SDS011;56841;55.964;37.674;2022-08-21T02:45:59;51.13;;;26.50;;
69621;SDS011;56841;55.964;37.674;2022-08-21T02:48:27;47.10;;;26.50;;
69621;SDS011;56841;55.964;37.674;2022-08-21T02:50:58;47.00;;;27.20;;
69621;SDS011;56841;55.964;37.674;2022-08-21T02:53:26;52.20;;;26.27;;
69621;SDS011;56841;55.964;37.674;2022-08-21T02:55:52;50.72;;;27.70;;
69621;SDS011;56841;55.964;37.674;2022-08-21T02:58:21;50.20;;;27.00;;
69621;SDS011;56841;55.964;37.674;2022-08-21T03:00:49;54.65;;;27.38;;
69621;SDS011;56841;55.964;37.674;2022-08-21T03:03:15;49.92;;;26.42;;
69621;SDS011;56841;55.964;37.674;2022-08-21T03:05:41;55.47;;;27.98;;
69621;SDS011;56841;55.964;37.674;2022-08-21T03:08:08;55.17;;;29.17;;
69621;SDS011;56841;55.964;37.674;2022-08-21T03:10:37;54.03;;;28.92;;
69621;SDS011;56841;55.964;37.674;2022-08-21T03:13:05;53.28;;;28.67;;
69621;SDS011;56841;55.964;37.674;2022-08-21T03:15:31;56.58;;;30.08;;
69621;SDS011;56841;55.964;37.674;2022-08-21T03:17:57;57.75;;;29.95;;
69621;SDS011;56841;55.964;37.674;2022-08-21T03:20:24;54.38;;;29.77;;
69621;SDS011;56841;55.964;37.674;2022-08-21T03:22:52;55.83;;;29.00;;
69621;SDS011;56841;55.964;37.674;2022-08-21T03:25:19;59.78;;;29.83;;
69621;SDS011;56841;55.964;37.674;2022-08-21T03:27:46;57.35;;;30.80;;
69621;SDS011;56841;55.964;37.674;2022-08-21T03:30:14;54.97;;;30.73;;
69621;SDS011;56841;55.964;37.674;2022-08-21T03:32:41;60.13;;;31.63;;
69621;SDS011;56841;55.964;37.674;2022-08-21T03:35:07;61.20;;;31.92;;
69621;SDS011;56841;55.964;37.674;2022-08-21T03:37:33;62.85;;;31.40;;
69621;SDS011;56841;55.964;37.674;2022-08-21T03:39:59;61.55;;;31.92;;
69621;SDS011;56841;55.964;37.674;2022-08-21T03:42:25;58.53;;;32.47;;
69621;SDS011;56841;55.964;37.674;2022-08-21T03:44:52;60.67;;;32.90;;
69621;SDS011;56841;55.964;37.674;2022-08-21T03:47:18;64.75;;;34.40;;
69621;SDS011;56841;55.964;37.674;2022-08-21T03:49:44;61.58;;;32.80;;
69621;SDS011;56841;55.964;37.674;2022-08-21T03:52:09;63.33;;;33.75;;
69621;SDS011;56841;55.964;37.674;2022-08-21T03:54:35;62.65;;;33.67;;
69621;SDS011;56841;55.964;37.674;2022-08-21T03:57:01;65.85;;;34.28;;
69621;SDS011;56841;55.964;37.674;2022-08-21T03:59:27;62.25;;;34.75;;
69621;SDS011;56841;55.964;37.674;2022-08-21T04:01:54;64.07;;;34.05;;
69621;SDS011;56841;55.964;37.674;2022-08-21T04:04:22;62.40;;;34.45;;
69621;SDS011;56841;55.964;37.674;2022-08-21T04:06:48;64.65;;;35.72;;
69621;SDS011;56841;55.964;37.674;2022-08-21T04:09:15;67.90;;;34.72;;
69621;SDS011;56841;55.964;37.674;2022-08-21T04:11:41;63.38;;;34.65;;
69621;SDS011;56841;55.964;37.674;2022-08-21T04:14:07;60.90;;;35.88;;
69621;SDS011;56841;55.964;37.674;2022-08-21T04:16:34;61.45;;;34.63;;
69621;SDS011;56841;55.964;37.674;2022-08-21T04:18:59;66.50;;;35.28;;
69621;SDS011;56841;55.964;37.674;2022-08-21T04:21:25;63.65;;;35.45;;
69621;SDS011;56841;55.964;37.674;2022-08-21T04:23:53;63.25;;;34.92;;
69621;SDS011;56841;55.964;37.674;2022-08-21T04:26:21;61.65;;;34.70;;
69621;SDS011;56841;55.964;37.674;2022-08-21T04:28:47;61.47;;;34.80;;
69621;SDS011;56841;55.964;37.674;2022-08-21T04:31:12;60.42;;;34.65;;
69621;SDS011;56841;55.964;37.674;2022-08-21T04:33:38;63.03;;;34.53;;
69621;SDS011;56841;55.964;37.674;2022-08-21T04:36:04;66.60;;;34.20;;
69621;SDS011;56841;55.964;37.674;2022-08-21T04:38:32;58.00;;;33.80;;
69621;SDS011;56841;55.964;37.674;2022-08-21T04:40:58;62.63;;;34.08;;
69621;SDS011;56841;55.964;37.674;2022-08-21T04:43:24;61.55;;;33.90;;
69621;SDS011;56841;55.964;37.674;2022-08-21T04:45:50;62.00;;;33.85;;
69621;SDS011;56841;55.964;37.674;2022-08-21T04:48:18;60.55;;;33.45;;
69621;SDS011;56841;55.964;37.674;2022-08-21T04:50:48;59.53;;;33.13;;
69621;SDS011;56841;55.964;37.674;2022-08-21T04:53:30;57.10;;;32.35;;
69621;SDS011;56841;55.964;37.674;2022-08-21T04:56:02;57.28;;;32.05;;
69621;SDS011;56841;55.964;37.674;2022-08-21T04:58:36;57.45;;;31.58;;
69621;SDS011;56841;55.964;37.674;2022-08-21T05:01:06;55.97;;;31.45;;
69621;SDS011;56841;55.964;37.674;2022-08-21T05:03:34;53.13;;;30.45;;
69621;SDS011;56841;55.964;37.674;2022-08-21T05:06:03;54.75;;;31.58;;
69621;SDS011;56841;55.964;37.674;2022-08-21T05:08:32;56.25;;;31.83;;
69621;SDS011;56841;55.964;37.674;2022-08-21T05:10:58;52.85;;;29.98;;
69621;SDS011;56841;55.964;37.674;2022-08-21T05:13:24;55.25;;;30.85;;
69621;SDS011;56841;55.964;37.674;2022-08-21T05:15:50;53.40;;;30.45;;
69621;SDS011;56841;55.964;37.674;2022-08-21T05:18:16;55.40;;;30.13;;
69621;SDS011;56841;55.964;37.674;2022-08-21T05:20:42;53.45;;;29.27;;
69621;SDS011;56841;55.964;37.674;2022-08-21T05:23:10;52.78;;;29.67;;
69621;SDS011;56841;55.964;37.674;2022-08-21T05:25:38;54.45;;;29.58;;
69621;SDS011;56841;55.964;37.674;2022-08-21T05:28:05;53.17;;;28.60;;
69621;SDS011;56841;55.964;37.674;2022-08-21T05:30:31;52.20;;;29.98;;
69621;SDS011;56841;55.964;37.674;2022-08-21T05:32:58;49.63;;;28.48;;
69621;SDS011;56841;55.964;37.674;2022-08-21T05:35:25;50.38;;;28.25;;
69621;SDS011;56841;55.964;37.674;2022-08-21T05:37:51;55.38;;;30.23;;
69621;SDS011;56841;55.964;37.674;2022-08-21T05:40:17;51.05;;;30.38;;
69621;SDS011;56841;55.964;37.674;2022-08-21T05:42:43;50.95;;;29.90;;
69621;SDS011;56841;55.964;37.674;2022-08-21T05:45:09;50.75;;;28.17;;
69621;SDS011;56841;55.964;37.674;2022-08-21T05:47:36;51.40;;;29.73;;
69621;SDS011;56841;55.964;37.674;2022-08-21T05:50:02;51.53;;;29.80;;
69621;SDS011;56841;55.964;37.674;2022-08-21T05:52:29;49.72;;;29.38;;
69621;SDS011;56841;55.964;37.674;2022-08-21T05:54:55;49.38;;;28.52;;
69621;SDS011;56841;55.964;37.674;2022-08-21T05:57:22;49.75;;;29.05;;
69621;SDS011;56841;55.964;37.674;2022-08-21T05:59:48;51.90;;;29.25;;
69621;SDS011;56841;55.964;37.674;2022-08-21T06:02:16;51.38;;;28.60;;
69621;SDS011;56841;55.964;37.674;2022-08-21T06:04:43;45.47;;;27.50;;
69621;SDS011;56841;55.964;37.674;2022-08-21T06:07:09;47.95;;;28.13;;
69621;SDS011;56841;55.964;37.674;2022-08-21T06:09:34;48.58;;;28.63;;
69621;SDS011;56841;55.964;37.674;2022-08-21T06:12:04;47.70;;;27.42;;
69621;SDS011;56841;55.964;37.674;2022-08-21T06:14:31;48.70;;;28.35;;
69621;SDS011;56841;55.964;37.674;2022-08-21T06:17:07;55.80;;;27.38;;
69621;SDS011;56841;55.964;37.674;2022-08-21T06:19:35;54.80;;;29.17;;
69621;SDS011;56841;55.964;37.674;2022-08-21T06:22:01;46.05;;;27.85;;
69621;SDS011;56841;55.964;37.674;2022-08-21T06:24:27;48.67;;;27.52;;
69621;SDS011;56841;55.964;37.674;2022-08-21T06:26:53;51.50;;;29.55;;
69621;SDS011;56841;55.964;37.674;2022-08-21T06:29:19;46.20;;;27.27;;
69621;SDS011;56841;55.964;37.674;2022-08-21T06:31:49;47.75;;;27.30;;
69621;SDS011;56841;55.964;37.674;2022-08-21T06:34:16;45.75;;;24.55;;
69621;SDS011;56841;55.964;37.674;2022-08-21T06:36:43;49.83;;;26.40;;
69621;SDS011;56841;55.964;37.674;2022-08-21T06:39:09;47.78;;;26.80;;
69621;SDS011;56841;55.964;37.674;2022-08-21T06:41:35;46.70;;;27.63;;
69621;SDS011;56841;55.964;37.674;2022-08-21T06:44:01;44.13;;;26.40;;
69621;SDS011;56841;55.964;37.674;2022-08-21T06:46:29;42.13;;;25.75;;
69621;SDS011;56841;55.964;37.674;2022-08-21T06:48:56;48.20;;;26.95;;
69621;SDS011;56841;55.964;37.674;2022-08-21T06:51:23;44.70;;;25.40;;
69621;SDS011;56841;55.964;37.674;2022-08-21T06:53:51;44.65;;;25.67;;
69621;SDS011;56841;55.964;37.674;2022-08-21T06:56:17;42.15;;;25.73;;
69621;SDS011;56841;55.964;37.674;2022-08-21T06:58:43;45.28;;;25.75;;
69621;SDS011;56841;55.964;37.674;2022-08-21T07:01:09;45.40;;;25.90;;
69621;SDS011;56841;55.964;37.674;2022-08-21T07:03:37;47.70;;;24.85;;
69621;SDS011;56841;55.964;37.674;2022-08-21T07:06:04;41.25;;;23.70;;
69621;SDS011;56841;55.964;37.674;2022-08-21T07:08:31;37.15;;;23.52;;
69621;SDS011;56841;55.964;37.674;2022-08-21T07:10:58;45.13;;;23.77;;
69621;SDS011;56841;55.964;37.674;2022-08-21T07:13:26;41.95;;;23.48;;
69621;SDS011;56841;55.964;37.674;2022-08-21T07:15:53;38.53;;;21.75;;
69621;SDS011;56841;55.964;37.674;2022-08-21T07:18:19;38.60;;;21.02;;
69621;SDS011;56841;55.964;37.674;2022-08-21T07:20:45;39.85;;;21.67;;
69621;SDS011;56841;55.964;37.674;2022-08-21T07:23:22;34.95;;;20.27;;
69621;SDS011;56841;55.964;37.674;2022-08-21T07:25:51;37.50;;;20.38;;
69621;SDS011;56841;55.964;37.674;2022-08-21T07:28:17;34.97;;;21.85;;
69621;SDS011;56841;55.964;37.674;2022-08-21T07:30:43;34.63;;;19.92;;
69621;SDS011;56841;55.964;37.674;2022-08-21T07:33:09;34.90;;;19.60;;
69621;SDS011;56841;55.964;37.674;2022-08-21T07:35:35;35.40;;;20.33;;
69621;SDS011;56841;55.964;37.674;2022-08-21T07:38:01;39.65;;;20.35;;
69621;SDS011;56841;55.964;37.674;2022-08-21T07:40:27;31.25;;;18.67;;
69621;SDS011;56841;55.964;37.674;2022-08-21T07:42:53;34.35;;;19.88;;
69621;SDS011;56841;55.964;37.674;2022-08-21T07:45:20;33.65;;;19.85;;
69621;SDS011;56841;55.964;37.674;2022-08-21T07:47:47;36.00;;;21.10;;
69621;SDS011;56841;55.964;37.674;2022-08-21T07:50:14;36.72;;;20.08;;
69621;SDS011;56841;55.964;37.674;2022-08-21T07:52:40;31.85;;;18.60;;
69621;SDS011;56841;55.964;37.674;2022-08-21T07:55:08;32.55;;;19.10;;
69621;SDS011;56841;55.964;37.674;2022-08-21T07:57:36;30.25;;;18.83;;
69621;SDS011;56841;55.964;37.674;2022-08-21T08:00:03;32.30;;;19.38;;
69621;SDS011;56841;55.964;37.674;2022-08-21T08:02:37;30.20;;;18.35;;
69621;SDS011;56841;55.964;37.674;2022-08-21T08:05:05;35.17;;;19.00;;
69621;SDS011;56841;55.964;37.674;2022-08-21T08:07:34;32.58;;;19.17;;
69621;SDS011;56841;55.964;37.674;2022-08-21T08:10:02;32.03;;;18.98;;
69621;SDS011;56841;55.964;37.674;2022-08-21T08:12:30;30.98;;;19.70;;
69621;SDS011;56841;55.964;37.674;2022-08-21T08:14:56;33.35;;;20.13;;
69621;SDS011;56841;55.964;37.674;2022-08-21T08:17:23;34.83;;;19.17;;
69621;SDS011;56841;55.964;37.674;2022-08-21T08:19:50;31.40;;;17.90;;
69621;SDS011;56841;55.964;37.674;2022-08-21T08:22:16;33.38;;;18.33;;
69621;SDS011;56841;55.964;37.674;2022-08-21T08:24:45;28.92;;;16.92;;
69621;SDS011;56841;55.964;37.674;2022-08-21T08:27:11;29.73;;;16.85;;
69621;SDS011;56841;55.964;37.674;2022-08-21T08:29:37;30.48;;;17.55;;
69621;SDS011;56841;55.964;37.674;2022-08-21T08:32:04;29.55;;;17.90;;
69621;SDS011;56841;55.964;37.674;2022-08-21T08:34:30;31.00;;;17.27;;
69621;SDS011;56841;55.964;37.674;2022-08-21T08:36:55;30.80;;;17.33;;
69621;SDS011;56841;55.964;37.674;2022-08-21T08:39:23;31.02;;;16.95;;
69621;SDS011;56841;55.964;37.674;2022-08-21T08:41:49;29.55;;;16.77;;
69621;SDS011;56841;55.964;37.674;2022-08-21T08:44:20;34.00;;;18.77;;
69621;SDS011;56841;55.964;37.674;2022-08-21T08:46:46;28.77;;;17.52;;
69621;SDS011;56841;55.964;37.674;2022-08-21T08:54:37;29.60;;;17.23;;
69621;SDS011;56841;55.964;37.674;2022-08-21T08:57:10;25.33;;;15.88;;
69621;SDS011;56841;55.964;37.674;2022-08-21T08:59:44;27.55;;;15.85;;
69621;SDS011;56841;55.964;37.674;2022-08-21T09:02:13;28.38;;;16.83;;
69621;SDS011;56841;55.964;37.674;2022-08-21T09:04:40;27.08;;;16.00;;
69621;SDS011;56841;55.964;37.674;2022-08-21T09:15:09;29.55;;;17.95;;
69621;SDS011;56841;55.964;37.674;2022-08-21T09:25:21;29.20;;;17.77;;
69621;SDS011;56841;55.964;37.674;2022-08-21T09:27:49;28.00;;;15.10;;
69621;SDS011;56841;55.964;37.674;2022-08-21T09:30:16;28.10;;;16.30;;
69621;SDS011;56841;55.964;37.674;2022-08-21T09:32:43;27.67;;;17.00;;
69621;SDS011;56841;55.964;37.674;2022-08-21T09:45:37;28.02;;;17.23;;
69621;SDS011;56841;55.964;37.674;2022-08-21T09:48:10;35.90;;;18.50;;
69621;SDS011;56841;55.964;37.674;2022-08-21T09:51:05;28.55;;;16.83;;
69621;SDS011;56841;55.964;37.674;2022-08-21T09:53:33;27.83;;;15.32;;
69621;SDS011;56841;55.964;37.674;2022-08-21T09:56:03;30.35;;;16.33;;
69621;SDS011;56841;55.964;37.674;2022-08-21T09:58:50;27.40;;;16.40;;
69621;SDS011;56841;55.964;37.674;2022-08-21T10:01:18;29.83;;;16.77;;
69621;SDS011;56841;55.964;37.674;2022-08-21T10:03:49;31.95;;;17.83;;
69621;SDS011;56841;55.964;37.674;2022-08-21T10:06:30;31.25;;;17.63;;
69621;SDS011;56841;55.964;37.674;2022-08-21T10:09:16;31.58;;;17.70;;
69621;SDS011;56841;55.964;37.674;2022-08-21T10:11:58;29.98;;;16.83;;
69621;SDS011;56841;55.964;37.674;2022-08-21T10:17:21;27.67;;;17.05;;
69621;SDS011;56841;55.964;37.674;2022-08-21T10:25:19;29.23;;;17.27;;
69621;SDS011;56841;55.964;37.674;2022-08-21T10:36:02;29.05;;;18.67;;
69621;SDS011;56841;55.964;37.674;2022-08-21T10:41:28;31.55;;;19.25;;
69621;SDS011;56841;55.964;37.674;2022-08-21T10:49:25;37.60;;;21.63;;
69621;SDS011;56841;55.964;37.674;2022-08-21T11:00:17;28.50;;;17.73;;
69621;SDS011;56841;55.964;37.674;2022-08-21T11:05:38;27.60;;;16.55;;
69621;SDS011;56841;55.964;37.674;2022-08-21T11:08:20;27.75;;;16.98;;
69621;SDS011;56841;55.964;37.674;2022-08-21T11:10:50;27.63;;;16.90;;
69621;SDS011;56841;55.964;37.674;2022-08-21T11:13:28;27.50;;;16.40;;
69621;SDS011;56841;55.964;37.674;2022-08-21T11:24:34;29.27;;;16.17;;
69621;SDS011;56841;55.964;37.674;2022-08-21T11:30:00;25.92;;;17.35;;
69621;SDS011;56841;55.964;37.674;2022-08-21T11:38:13;29.95;;;18.35;;
69621;SDS011;56841;55.964;37.674;2022-08-21T11:44:22;35.50;;;18.52;;
69621;SDS011;56841;55.964;37.674;2022-08-21T11:47:08;36.22;;;18.88;;
69621;SDS011;56841;55.964;37.674;2022-08-21T11:52:31;32.03;;;20.60;;
69621;SDS011;56841;55.964;37.674;2022-08-21T11:57:51;40.63;;;21.55;;
69621;SDS011;56841;55.964;37.674;2022-08-21T12:03:11;41.05;;;22.90;;
69621;SDS011;56841;55.964;37.674;2022-08-21T12:05:42;38.15;;;22.33;;
69621;SDS011;56841;55.964;37.674;2022-08-21T12:08:39;42.00;;;24.23;;
69621;SDS011;56841;55.964;37.674;2022-08-21T12:19:12;39.90;;;24.45;;
69621;SDS011;56841;55.964;37.674;2022-08-21T12:22:19;43.65;;;25.25;;
69621;SDS011;56841;55.964;37.674;2022-08-21T12:24:41;45.17;;;26.08;;
69621;SDS011;56841;55.964;37.674;2022-08-21T12:27:26;46.97;;;25.30;;
69621;SDS011;56841;55.964;37.674;2022-08-21T12:29:59;42.67;;;25.00;;
69621;SDS011;56841;55.964;37.674;2022-08-21T12:32:42;43.70;;;24.23;;
69621;SDS011;56841;55.964;37.674;2022-08-21T12:35:17;42.55;;;25.20;;
69621;SDS011;56841;55.964;37.674;2022-08-21T12:37:52;49.42;;;26.15;;
69621;SDS011;56841;55.964;37.674;2022-08-21T12:40:30;49.17;;;26.33;;
69621;SDS011;56841;55.964;37.674;2022-08-21T12:43:02;40.67;;;25.33;;
69621;SDS011;56841;55.964;37.674;2022-08-21T12:45:31;41.55;;;24.42;;
69621;SDS011;56841;55.964;37.674;2022-08-21T12:48:26;38.55;;;24.08;;
69621;SDS011;56841;55.964;37.674;2022-08-21T12:51:06;37.03;;;21.35;;
69621;SDS011;56841;55.964;37.674;2022-08-21T12:56:13;21.70;;;11.07;;
69621;SDS011;56841;55.964;37.674;2022-08-21T12:58:52;23.20;;;11.18;;
69621;SDS011;56841;55.964;37.674;2022-08-21T13:03:54;20.20;;;9.82;;
69621;SDS011;56841;55.964;37.674;2022-08-21T13:06:25;18.17;;;8.80;;
69621;SDS011;56841;55.964;37.674;2022-08-21T13:08:56;24.08;;;10.32;;
69621;SDS011;56841;55.964;37.674;2022-08-21T13:11:24;21.40;;;9.60;;
69621;SDS011;56841;55.964;37.674;2022-08-21T13:13:51;24.48;;;12.43;;
69621;SDS011;56841;55.964;37.674;2022-08-21T13:16:26;19.02;;;10.50;;
69621;SDS011;56841;55.964;37.674;2022-08-21T13:18:55;19.02;;;10.50;;
69621;SDS011;56841;55.964;37.674;2022-08-21T13:21:32;19.25;;;10.80;;
69621;SDS011;56841;55.964;37.674;2022-08-21T13:24:17;19.33;;;11.20;;
69621;SDS011;56841;55.964;37.674;2022-08-21T13:26:58;15.07;;;9.25;;
69621;SDS011;56841;55.964;37.674;2022-08-21T13:29:27;23.30;;;10.02;;
69621;SDS011;56841;55.964;37.674;2022-08-21T13:32:06;16.48;;;10.05;;
69621;SDS011;56841;55.964;37.674;2022-08-21T13:34:44;18.73;;;9.05;;
69621;SDS011;56841;55.964;37.674;2022-08-21T13:37:10;17.25;;;9.98;;
69621;SDS011;56841;55.964;37.674;2022-08-21T13:39:37;18.20;;;9.63;;
69621;SDS011;56841;55.964;37.674;2022-08-21T13:42:09;18.50;;;9.85;;
69621;SDS011;56841;55.964;37.674;2022-08-21T13:44:42;15.30;;;9.52;;
69621;SDS011;56841;55.964;37.674;2022-08-21T13:47:10;20.98;;;10.00;;
69621;SDS011;56841;55.964;37.674;2022-08-21T13:49:48;18.80;;;10.90;;
69621;SDS011;56841;55.964;37.674;2022-08-21T13:52:24;20.85;;;11.45;;
69621;SDS011;56841;55.964;37.674;2022-08-21T13:54:56;21.77;;;11.25;;
69621;SDS011;56841;55.964;37.674;2022-08-21T13:57:33;18.35;;;10.10;;
69621;SDS011;56841;55.964;37.674;2022-08-21T14:00:10;22.67;;;10.68;;
69621;SDS011;56841;55.964;37.674;2022-08-21T14:02:43;21.70;;;11.23;;
69621;SDS011;56841;55.964;37.674;2022-08-21T14:05:31;19.38;;;11.48;;
69621;SDS011;56841;55.964;37.674;2022-08-21T14:10:27;26.85;;;12.63;;
69621;SDS011;56841;55.964;37.674;2022-08-21T14:12:57;23.88;;;13.25;;
69621;SDS011;56841;55.964;37.674;2022-08-21T14:15:27;22.33;;;12.23;;
69621;SDS011;56841;55.964;37.674;2022-08-21T14:18:17;21.48;;;13.60;;
69621;SDS011;56841;55.964;37.674;2022-08-21T14:20:44;29.30;;;16.27;;
69621;SDS011;56841;55.964;37.674;2022-08-21T14:23:23;34.00;;;17.00;;
69621;SDS011;56841;55.964;37.674;2022-08-21T14:25:50;29.83;;;17.73;;
69621;SDS011;56841;55.964;37.674;2022-08-21T14:30:57;28.55;;;19.25;;
69621;SDS011;56841;55.964;37.674;2022-08-21T14:33:31;32.72;;;20.02;;
69621;SDS011;56841;55.964;37.674;2022-08-21T14:35:58;35.75;;;20.42;;
69621;SDS011;56841;55.964;37.674;2022-08-21T14:38:25;38.90;;;23.17;;
69621;SDS011;56841;55.964;37.674;2022-08-21T14:40:54;37.60;;;24.60;;
69621;SDS011;56841;55.964;37.674;2022-08-21T14:43:26;41.88;;;26.33;;
69621;SDS011;56841;55.964;37.674;2022-08-21T14:45:53;42.35;;;26.65;;
69621;SDS011;56841;55.964;37.674;2022-08-21T14:48:20;44.65;;;30.13;;
69621;SDS011;56841;55.964;37.674;2022-08-21T14:50:46;49.95;;;32.00;;
69621;SDS011;56841;55.964;37.674;2022-08-21T14:53:12;47.15;;;31.48;;
69621;SDS011;56841;55.964;37.674;2022-08-21T14:55:39;51.85;;;35.22;;
69621;SDS011;56841;55.964;37.674;2022-08-21T14:58:24;54.50;;;35.10;;
69621;SDS011;56841;55.964;37.674;2022-08-21T15:00:51;54.03;;;35.00;;
69621;SDS011;56841;55.964;37.674;2022-08-21T15:03:18;54.65;;;35.80;;
69621;SDS011;56841;55.964;37.674;2022-08-21T15:05:44;53.92;;;36.03;;
69621;SDS011;56841;55.964;37.674;2022-08-21T15:08:10;49.63;;;36.17;;
69621;SDS011;56841;55.964;37.674;2022-08-21T15:10:36;52.38;;;36.63;;
69621;SDS011;56841;55.964;37.674;2022-08-21T15:13:02;55.97;;;36.47;;
69621;SDS011;56841;55.964;37.674;2022-08-21T15:15:30;52.67;;;36.30;;
69621;SDS011;56841;55.964;37.674;2022-08-21T15:18:04;59.00;;;36.90;;
69621;SDS011;56841;55.964;37.674;2022-08-21T15:20:30;55.40;;;35.80;;
69621;SDS011;56841;55.964;37.674;2022-08-21T15:22:56;57.95;;;35.67;;
69621;SDS011;56841;55.964;37.674;2022-08-21T15:25:21;54.90;;;35.45;;
69621;SDS011;56841;55.964;37.674;2022-08-21T15:27:48;53.75;;;34.40;;
69621;SDS011;56841;55.964;37.674;2022-08-21T15:30:14;50.03;;;33.00;;
69621;SDS011;56841;55.964;37.674;2022-08-21T15:32:40;52.45;;;34.92;;
69621;SDS011;56841;55.964;37.674;2022-08-21T15:35:07;56.78;;;34.17;;
69621;SDS011;56841;55.964;37.674;2022-08-21T15:37:34;54.75;;;33.08;;
69621;SDS011;56841;55.964;37.674;2022-08-21T15:40:01;52.72;;;33.13;;
69621;SDS011;56841;55.964;37.674;2022-08-21T15:42:28;51.70;;;33.53;;
69621;SDS011;56841;55.964;37.674;2022-08-21T15:44:55;45.80;;;32.08;;
69621;SDS011;56841;55.964;37.674;2022-08-21T15:47:25;48.08;;;32.83;;
69621;SDS011;56841;55.964;37.674;2022-08-21T15:49:53;48.40;;;31.55;;
69621;SDS011;56841;55.964;37.674;2022-08-21T15:52:20;48.88;;;31.25;;
69621;SDS011;56841;55.964;37.674;2022-08-21T15:54:47;51.45;;;32.33;;
69621;SDS011;56841;55.964;37.674;2022-08-21T15:57:14;50.78;;;30.35;;
69621;SDS011;56841;55.964;37.674;2022-08-21T15:59:43;45.33;;;30.17;;
69621;SDS011;56841;55.964;37.674;2022-08-21T16:02:17;47.40;;;30.98;;
69621;SDS011;56841;55.964;37.674;2022-08-21T16:04:47;47.42;;;31.65;;
69621;SDS011;56841;55.964;37.674;2022-08-21T16:07:15;44.63;;;30.40;;
69621;SDS011;56841;55.964;37.674;2022-08-21T16:09:41;41.20;;;30.10;;
69621;SDS011;56841;55.964;37.674;2022-08-21T16:12:08;43.30;;;30.50;;
69621;SDS011;56841;55.964;37.674;2022-08-21T16:14:37;48.08;;;30.48;;